Time;durP1;ratioP1;P1;durP2;ratioP2;P2;SDS_P1;SDS_P2;PMS_P1;PMS_P2;Temp;Humidity;BMP_temperature;BMP_pressure;BME280_temperature;BME280_humidity;BME280_pressure;Samples;Min_cycle;Max_cycle;Signal;HPM_P1;HPM_P2
2022/10/29 00:01:34;;;;;;;;;;;;;;;15.57;100.00;98749.28;5059087;28;19979;-64
2022/10/29 00:04:01;;;;;;;;;;;;;;;15.60;100.00;98754.94;5058710;28;19992;-64
2022/10/29 00:06:27;;;;;;;;;;;;;;;15.59;100.00;98747.16;5056058;28;20036;-64
2022/10/29 00:08:54;;;;;;;;;;;;;;;15.47;100.00;98741.22;5055325;28;19946;-65
2022/10/29 00:11:21;;;;;;;;;;;;;;;15.49;100.00;98753.38;5056415;28;19925;-64
2022/10/29 00:13:48;;;;;;;;;;;;;;;15.44;100.00;98744.47;5058363;28;19927;-64
2022/10/29 00:16:16;;;;;;;;;;;;;;;15.44;100.00;98742.56;5057777;28;19992;-64
2022/10/29 00:18:43;;;;;;;;;;;;;;;15.40;100.00;98744.22;5055034;28;20008;-64
2022/10/29 00:21:11;;;;;;;;;;;;;;;15.03;100.00;98749.94;5053655;28;19988;-64
2022/10/29 00:23:37;;;;;;;;;;;;;;;14.92;100.00;98748.31;5042570;28;19921;-64
2022/10/29 00:26:04;;;;;;;;;;;;;;;15.00;100.00;98746.97;5058532;28;19948;-63
2022/10/29 00:28:30;;;;;;;;;;;;;;;15.09;100.00;98751.53;5055545;28;19929;-63
2022/10/29 00:30:56;;;;;;;;;;;;;;;15.05;100.00;98755.84;5054904;28;19965;-64
2022/10/29 00:33:24;;;;;;;;;;;;;;;14.93;100.00;98744.56;5056731;28;19959;-64
2022/10/29 00:35:54;;;;;;;;;;;;;;;14.99;100.00;98745.38;5058296;28;20012;-64
2022/10/29 00:38:21;;;;;;;;;;;;;;;15.08;100.00;98747.22;5056922;28;20491;-64
2022/10/29 00:40:47;;;;;;;;;;;;;;;15.16;100.00;98742.38;5054325;28;19997;-63
2022/10/29 00:43:13;;;;;;;;;;;;;;;15.23;100.00;98746.38;5054633;28;20000;-64
2022/10/29 00:45:41;;;;;;;;;;;;;;;15.26;100.00;98736.97;5058422;28;20408;-65
2022/10/29 00:48:07;;;;;;;;;;;;;;;15.30;100.00;98743.41;5058584;28;20450;-63
2022/10/29 00:50:35;;;;;;;;;;;;;;;15.29;100.00;98756.06;5055216;28;19971;-64
2022/10/29 00:53:02;;;;;;;;;;;;;;;15.35;100.00;98751.50;5052825;28;19960;-64
2022/10/29 00:55:28;;;;;;;;;;;;;;;15.35;100.00;98768.44;5057123;28;19936;-64
2022/10/29 00:57:55;;;;;;;;;;;;;;;15.26;100.00;98762.00;5058645;28;19984;-65
2022/10/29 01:00:22;;;;;;;;;;;;;;;15.35;100.00;98764.97;5056899;28;19992;-64
2022/10/29 01:02:48;;;;;;;;;;;;;;;15.31;100.00;98753.94;5058482;28;19929;-63
2022/10/29 01:05:16;;;;;;;;;;;;;;;15.34;100.00;98761.47;5059134;28;20012;-63
2022/10/29 01:07:44;;;;;;;;;;;;;;;15.34;100.00;98750.69;5062118;28;20036;-64
2022/10/29 01:10:11;;;;;;;;;;;;;;;15.21;100.00;98756.63;5061838;28;19925;-64
2022/10/29 01:12:48;;;;;;;;;;;;;;;15.19;100.00;98753.41;5058578;28;19957;-64
2022/10/29 01:15:18;;;;;;;;;;;;;;;15.19;100.00;98741.84;5060586;28;19984;-64
2022/10/29 01:17:49;;;;;;;;;;;;;;;15.19;100.00;98764.19;5063028;28;19968;-64
2022/10/29 01:20:28;;;;;;;;;;;;;;;15.19;100.00;98755.28;5062483;28;19925;-64
2022/10/29 01:23:04;;;;;;;;;;;;;;;15.21;100.00;98755.81;5064846;27;19925;-63
2022/10/29 01:25:42;;;;;;;;;;;;;;;15.19;100.00;98763.38;5060499;28;19929;-63
2022/10/29 01:28:17;;;;;;;;;;;;;;;15.21;100.00;98755.81;5058908;28;20019;-63
2022/10/29 01:30:54;;;;;;;;;;;;;;;15.14;100.00;98751.53;5051660;28;19956;-63
2022/10/29 01:33:22;;;;;;;;;;;;;;;15.22;100.00;98757.44;5059942;28;19929;-64
2022/10/29 01:35:54;;;;;;;;;;;;;;;15.13;100.00;98755.28;5061804;28;20148;-63
2022/10/29 01:38:28;;;;;;;;;;;;;;;15.10;100.00;98750.44;5060193;28;19992;-63
2022/10/29 01:40:56;;;;;;;;;;;;;;;15.10;100.00;98755.84;5058644;28;19972;-63
2022/10/29 01:43:27;;;;;;;;;;;;;;;15.16;100.00;98766.59;5059904;28;19931;-63
2022/10/29 01:45:58;;;;;;;;;;;;;;;15.14;100.00;98756.09;5061706;28;19924;-63
2022/10/29 01:48:27;;;;;;;;;;;;;;;15.14;100.00;98756.09;5059694;28;19932;-63
2022/10/29 01:50:57;;;;;;;;;;;;;;;15.18;100.00;98759.88;5058185;28;19933;-64
2022/10/29 01:53:25;;;;;;;;;;;;;;;15.16;100.00;98753.16;5057255;28;19981;-64
2022/10/29 01:55:51;;;;;;;;;;;;;;;15.20;100.00;98751.50;5061121;28;19924;-64
2022/10/29 01:58:18;;;;;;;;;;;;;;;15.09;100.00;98748.03;5059995;28;19925;-63
2022/10/29 02:00:49;;;;;;;;;;;;;;;15.11;100.00;98756.63;5057505;28;19936;-64
2022/10/29 02:03:24;;;;;;;;;;;;;;;15.06;100.00;98751.28;5058269;28;20408;-65
2022/10/29 02:05:54;;;;;;;;;;;;;;;15.04;100.00;98746.16;5061112;28;19963;-64
2022/10/29 02:08:28;;;;;;;;;;;;;;;15.11;100.00;98743.19;5059095;28;19967;-64
2022/10/29 02:10:57;;;;;;;;;;;;;;;15.09;100.00;98743.47;5057470;28;19922;-64
2022/10/29 02:13:28;;;;;;;;;;;;;;;15.06;100.00;98744.03;5059396;28;20017;-63
2022/10/29 02:15:56;;;;;;;;;;;;;;;15.11;100.00;98741.31;5060589;28;19980;-63
2022/10/29 02:18:24;;;;;;;;;;;;;;;15.10;100.00;98745.06;5058987;28;19996;-63
2022/10/29 02:20:50;;;;;;;;;;;;;;;15.13;100.00;98739.13;5057321;28;19968;-64
2022/10/29 02:23:17;;;;;;;;;;;;;;;15.09;100.00;98738.09;5064071;28;19956;-63
2022/10/29 02:25:43;;;;;;;;;;;;;;;15.10;100.00;98737.00;5056989;28;19932;-64
2022/10/29 02:28:09;;;;;;;;;;;;;;;15.06;100.00;98737.81;5056976;28;20000;-63
2022/10/29 02:30:36;;;;;;;;;;;;;;;14.96;100.00;98738.66;5049020;28;19980;-64
2022/10/29 02:33:02;;;;;;;;;;;;;;;14.92;100.00;98728.69;5057081;28;19988;-64
2022/10/29 02:35:30;;;;;;;;;;;;;;;14.81;100.00;98719.84;5059098;28;19929;-64
2022/10/29 02:37:56;;;;;;;;;;;;;;;14.64;100.00;98713.13;5060395;28;19925;-65
2022/10/29 02:40:22;;;;;;;;;;;;;;;14.53;100.00;98710.44;5058552;28;20052;-64
2022/10/29 02:42:49;;;;;;;;;;;;;;;14.59;100.00;98700.50;5056810;28;19929;-63
2022/10/29 02:45:15;;;;;;;;;;;;;;;14.66;100.00;98706.41;5057392;28;19932;-63
2022/10/29 02:47:41;;;;;;;;;;;;;;;14.59;100.00;98703.19;5060308;28;19925;-64
2022/10/29 02:50:08;;;;;;;;;;;;;;;14.34;100.00;98700.47;5060161;28;20011;-64
2022/10/29 02:52:36;;;;;;;;;;;;;;;14.27;100.00;98700.72;5054562;28;19977;-64
2022/10/29 02:55:02;;;;;;;;;;;;;;;14.32;100.00;98702.59;5056714;28;19921;-64
2022/10/29 02:57:29;;;;;;;;;;;;;;;14.32;100.00;98695.34;5059176;28;20000;-64
2022/10/29 02:59:55;;;;;;;;;;;;;;;14.38;100.00;98699.69;5060040;28;19988;-63
2022/10/29 03:02:21;;;;;;;;;;;;;;;14.49;100.00;98711.22;5058341;28;19924;-64
2022/10/29 03:04:48;;;;;;;;;;;;;;;14.58;100.00;98710.44;5056609;28;19925;-63
2022/10/29 03:07:14;;;;;;;;;;;;;;;14.64;100.00;98711.22;5056883;28;19985;-64
2022/10/29 03:09:42;;;;;;;;;;;;;;;14.65;100.00;98712.84;5059744;28;19932;-63
2022/10/29 03:12:08;;;;;;;;;;;;;;;14.72;100.00;98716.09;5059443;28;19995;-64
2022/10/29 03:14:34;;;;;;;;;;;;;;;14.83;100.00;98714.97;5056486;28;19992;-63
2022/10/29 03:17:01;;;;;;;;;;;;;;;14.88;100.00;98712.31;5056145;28;19992;-63
2022/10/29 03:19:27;;;;;;;;;;;;;;;14.82;100.00;98721.47;5058097;28;20004;-63
2022/10/29 03:21:53;;;;;;;;;;;;;;;14.84;100.00;98707.72;5059569;28;19959;-62
2022/10/29 03:24:20;;;;;;;;;;;;;;;14.70;100.00;98712.06;5054704;28;19974;-64
2022/10/29 03:26:47;;;;;;;;;;;;;;;14.49;100.00;98706.66;5056193;28;20020;-64
2022/10/29 03:29:13;;;;;;;;;;;;;;;14.19;100.00;98697.75;5056580;28;19980;-63
2022/10/29 03:31:40;;;;;;;;;;;;;;;14.00;100.00;98709.00;5059528;28;20416;-63
2022/10/29 03:34:06;;;;;;;;;;;;;;;14.14;100.00;98708.50;5059407;28;20015;-63
2022/10/29 03:36:32;;;;;;;;;;;;;;;14.19;100.00;98711.19;5056438;28;19985;-63
2022/10/29 03:38:59;;;;;;;;;;;;;;;14.12;100.00;98698.00;5055252;28;19925;-64
2022/10/29 03:41:25;;;;;;;;;;;;;;;14.22;100.00;98706.09;5058094;28;19996;-64
2022/10/29 03:43:53;;;;;;;;;;;;;;;14.31;100.00;98704.47;5059660;28;20320;-63
2022/10/29 03:46:19;;;;;;;;;;;;;;;14.40;100.00;98708.28;5057979;28;19963;-64
2022/10/29 03:48:48;;;;;;;;;;;;;;;14.40;100.00;98702.09;5054693;28;19984;-64
2022/10/29 03:51:15;;;;;;;;;;;;;;;14.45;100.00;98712.88;5055110;28;19937;-64
2022/10/29 03:53:41;;;;;;;;;;;;;;;14.51;100.00;98723.31;5056521;28;19953;-64
2022/10/29 03:56:09;;;;;;;;;;;;;;;14.57;100.00;98724.16;5058870;28;19971;-64
2022/10/29 03:58:36;;;;;;;;;;;;;;;14.56;100.00;98717.16;5047431;28;19957;-64
2022/10/29 04:01:04;;;;;;;;;;;;;;;14.55;100.00;98718.22;5055428;28;19931;-64
2022/10/29 04:03:31;;;;;;;;;;;;;;;14.60;100.00;98718.25;5058072;28;19928;-63
2022/10/29 04:05:59;;;;;;;;;;;;;;;14.58;100.00;98720.38;5058746;28;19925;-64
2022/10/29 04:08:25;;;;;;;;;;;;;;;14.50;100.00;98728.97;5056440;28;19932;-63
2022/10/29 04:10:52;;;;;;;;;;;;;;;14.41;100.00;98731.41;5055284;28;19959;-63
2022/10/29 04:13:19;;;;;;;;;;;;;;;14.12;100.00;98721.38;5056066;28;20016;-63
2022/10/29 04:15:45;;;;;;;;;;;;;;;14.18;100.00;98731.03;5058350;28;20031;-64
2022/10/29 04:18:13;;;;;;;;;;;;;;;14.15;100.00;98729.72;5058188;28;19925;-64
2022/10/29 04:20:40;;;;;;;;;;;;;;;14.06;100.00;98734.81;5055000;28;19929;-64
2022/10/29 04:23:06;;;;;;;;;;;;;;;13.94;100.00;98736.91;5052459;28;19982;-64
2022/10/29 04:25:33;;;;;;;;;;;;;;;14.01;100.00;98731.31;5058148;28;20328;-64
2022/10/29 04:27:59;;;;;;;;;;;;;;;14.16;100.00;98734.00;5058821;28;19992;-64
2022/10/29 04:30:25;;;;;;;;;;;;;;;14.27;100.00;98732.13;5056440;28;19989;-63
2022/10/29 04:32:55;;;;;;;;;;;;;;;14.26;100.00;98734.03;5055396;28;19986;-64
2022/10/29 04:35:23;;;;;;;;;;;;;;;14.09;100.00;98722.72;5056332;28;20004;-65
2022/10/29 04:37:49;;;;;;;;;;;;;;;13.92;100.00;98717.59;5062005;28;19968;-64
2022/10/29 04:40:16;;;;;;;;;;;;;;;13.85;100.00;98721.59;5061503;28;19952;-64
2022/10/29 04:42:42;;;;;;;;;;;;;;;13.99;100.00;98734.22;5058813;28;19925;-63
2022/10/29 04:45:09;;;;;;;;;;;;;;;14.13;100.00;98733.72;5058836;28;19933;-64
2022/10/29 04:47:36;;;;;;;;;;;;;;;14.22;100.00;98741.00;5050620;28;20460;-64
2022/10/29 04:50:03;;;;;;;;;;;;;;;14.27;100.00;98737.50;5058746;28;20024;-64
2022/10/29 04:52:30;;;;;;;;;;;;;;;14.30;100.00;98735.09;5057314;28;19925;-63
2022/10/29 04:54:57;;;;;;;;;;;;;;;14.34;100.00;98730.84;5058689;28;19925;-64
2022/10/29 04:57:23;;;;;;;;;;;;;;;14.10;100.00;98734.25;5060118;28;19961;-64
2022/10/29 04:59:50;;;;;;;;;;;;;;;14.08;100.00;98737.19;5061918;28;19941;-64
2022/10/29 05:02:17;;;;;;;;;;;;;;;13.94;100.00;98731.53;5060721;28;19980;-64
2022/10/29 05:04:43;;;;;;;;;;;;;;;13.84;100.00;98731.50;5058110;28;19972;-64
2022/10/29 05:07:10;;;;;;;;;;;;;;;13.88;100.00;98729.09;5057807;28;19960;-64
2022/10/29 05:09:38;;;;;;;;;;;;;;;13.97;100.00;98728.34;5049806;28;19926;-64
2022/10/29 05:12:06;;;;;;;;;;;;;;;13.86;100.00;98732.06;5058025;28;19932;-65
2022/10/29 05:14:33;;;;;;;;;;;;;;;13.92;100.00;98728.31;5060913;28;19937;-64
2022/10/29 05:16:59;;;;;;;;;;;;;;;14.02;100.00;98733.69;5061212;28;19925;-64
2022/10/29 05:19:25;;;;;;;;;;;;;;;14.08;100.00;98729.97;5059037;28;19988;-64
2022/10/29 05:21:52;;;;;;;;;;;;;;;14.16;100.00;98735.88;5057888;28;19929;-65
2022/10/29 05:24:18;;;;;;;;;;;;;;;14.20;100.00;98734.28;5058601;28;19954;-64
2022/10/29 05:26:46;;;;;;;;;;;;;;;14.18;100.00;98733.72;5061160;28;19925;-63
2022/10/29 05:29:13;;;;;;;;;;;;;;;14.10;100.00;98737.75;5061012;28;20012;-64
2022/10/29 05:31:42;;;;;;;;;;;;;;;13.99;100.00;98739.59;5057725;28;20008;-64
2022/10/29 05:34:10;;;;;;;;;;;;;;;13.91;100.00;98732.06;5057487;28;20440;-63
2022/10/29 05:36:39;;;;;;;;;;;;;;;13.84;100.00;98731.50;5049586;28;19925;-63
2022/10/29 05:39:07;;;;;;;;;;;;;;;13.79;100.00;98728.81;5056602;28;19925;-63
2022/10/29 05:41:35;;;;;;;;;;;;;;;13.78;100.00;98732.56;5060624;28;19929;-63
2022/10/29 05:44:06;;;;;;;;;;;;;;;13.95;100.00;98743.91;5061134;28;19935;-64
2022/10/29 05:46:35;;;;;;;;;;;;;;;14.06;100.00;98739.34;5057190;28;19929;-64
2022/10/29 05:49:04;;;;;;;;;;;;;;;14.12;100.00;98732.09;5057589;28;19936;-64
2022/10/29 05:51:32;;;;;;;;;;;;;;;14.17;100.00;98751.75;5060012;28;19946;-65
2022/10/29 05:54:00;;;;;;;;;;;;;;;14.14;100.00;98738.84;5058490;28;19992;-64
2022/10/29 05:56:28;;;;;;;;;;;;;;;14.10;100.00;98736.94;5058344;28;19936;-64
2022/10/29 05:58:56;;;;;;;;;;;;;;;14.04;100.00;98739.63;5057598;28;19925;-63
2022/10/29 06:01:24;;;;;;;;;;;;;;;14.11;100.00;98747.44;5059206;28;19978;-64
2022/10/29 06:03:51;;;;;;;;;;;;;;;14.18;100.00;98744.47;5062395;28;19975;-61
2022/10/29 06:06:17;;;;;;;;;;;;;;;14.25;100.00;98742.34;5062828;28;19935;-63
2022/10/29 06:08:43;;;;;;;;;;;;;;;14.28;100.00;98748.00;5059877;28;19983;-64
2022/10/29 06:11:09;;;;;;;;;;;;;;;14.11;100.00;98749.31;5056815;28;19925;-64
2022/10/29 06:13:36;;;;;;;;;;;;;;;14.13;100.00;98755.22;5060116;28;19925;-64
2022/10/29 06:16:02;;;;;;;;;;;;;;;14.22;100.00;98764.38;5060350;28;19928;-64
2022/10/29 06:18:30;;;;;;;;;;;;;;;14.27;100.00;98759.81;5057802;28;19967;-63
2022/10/29 06:20:57;;;;;;;;;;;;;;;14.26;100.00;98762.78;5056866;28;19992;-63
2022/10/29 06:23:23;;;;;;;;;;;;;;;14.30;100.00;98761.16;5063510;28;19921;-64
2022/10/29 06:25:50;;;;;;;;;;;;;;;14.29;100.00;98765.75;5056850;28;20004;-63
2022/10/29 06:28:17;;;;;;;;;;;;;;;14.28;100.00;98764.13;5057463;28;19962;-63
2022/10/29 06:30:46;;;;;;;;;;;;;;;14.37;100.00;98773.31;5060133;28;19928;-63
2022/10/29 06:33:12;;;;;;;;;;;;;;;14.40;100.00;98780.03;5059696;28;19980;-64
2022/10/29 06:35:40;;;;;;;;;;;;;;;14.35;100.00;98770.09;5056734;28;19984;-64
2022/10/29 06:38:06;;;;;;;;;;;;;;;14.37;100.00;98767.94;5056917;28;19971;-64
2022/10/29 06:40:33;;;;;;;;;;;;;;;14.24;100.00;98764.91;5059259;28;19984;-63
2022/10/29 06:42:59;;;;;;;;;;;;;;;14.18;100.00;98774.84;5059899;28;19967;-64
2022/10/29 06:45:26;;;;;;;;;;;;;;;14.08;100.00;98775.63;5057720;28;19925;-63
2022/10/29 06:47:52;;;;;;;;;;;;;;;14.10;100.00;98780.75;5056338;28;19964;-63
2022/10/29 06:50:18;;;;;;;;;;;;;;;13.96;100.00;98776.91;5057156;28;20000;-63
2022/10/29 06:52:53;;;;;;;;;;;;;;;13.94;100.00;98777.19;5053725;28;19993;-63
2022/10/29 06:55:19;;;;;;;;;;;;;;;13.94;100.00;98785.25;5057187;28;19992;-64
2022/10/29 06:57:45;;;;;;;;;;;;;;;14.00;100.00;98788.75;5059545;28;19932;-63
2022/10/29 07:00:12;;;;;;;;;;;;;;;14.06;100.00;98788.53;5058662;28;19928;-64
2022/10/29 07:02:38;;;;;;;;;;;;;;;14.12;100.00;98792.03;5056184;28;19925;-63
2022/10/29 07:05:05;;;;;;;;;;;;;;;14.14;100.00;98786.41;5056096;28;19960;-64
2022/10/29 07:07:31;;;;;;;;;;;;;;;14.08;100.00;98783.69;5058718;28;19929;-64
2022/10/29 07:09:59;;;;;;;;;;;;;;;14.03;100.00;98774.81;5059597;28;19925;-63
2022/10/29 07:12:25;;;;;;;;;;;;;;;13.81;100.00;98779.56;5057353;28;19929;-64
2022/10/29 07:14:52;;;;;;;;;;;;;;;13.70;100.00;98780.59;5088260;28;19992;-64
2022/10/29 07:17:18;;;;;;;;;;;;;;;13.64;100.00;98792.38;5056780;28;19988;-64
2022/10/29 07:19:44;;;;;;;;;;;;;;;13.50;100.00;98794.69;5059583;28;19985;-63
2022/10/29 07:22:11;;;;;;;;;;;;;;;13.52;100.00;98787.22;5056701;28;19928;-64
2022/10/29 07:24:37;;;;;;;;;;;;;;;13.42;100.00;98787.97;5048199;28;19947;-63
2022/10/29 07:27:06;;;;;;;;;;;;;;;13.37;100.00;98792.47;5055985;28;19931;-63
2022/10/29 07:29:32;;;;;;;;;;;;;;;13.31;100.00;98799.69;5058624;28;20061;-63
2022/10/29 07:31:58;;;;;;;;;;;;;;;13.27;100.00;98801.28;5059421;28;19988;-64
2022/10/29 07:34:24;;;;;;;;;;;;;;;13.31;100.00;98801.56;5056916;28;19992;-64
2022/10/29 07:36:51;;;;;;;;;;;;;;;13.30;100.00;98806.16;5055645;28;19925;-64
2022/10/29 07:39:17;;;;;;;;;;;;;;;13.27;100.00;98795.94;5056482;28;19963;-62
2022/10/29 07:41:43;;;;;;;;;;;;;;;13.30;100.00;98794.59;5059359;28;19921;-63
2022/10/29 07:44:11;;;;;;;;;;;;;;;13.19;100.00;98803.63;5059284;28;19988;-62
2022/10/29 07:46:38;;;;;;;;;;;;;;;13.22;100.00;98795.06;5047922;28;19953;-63
2022/10/29 07:49:04;;;;;;;;;;;;;;;13.25;100.00;98802.59;5055681;28;19984;-62
2022/10/29 07:51:30;;;;;;;;;;;;;;;13.23;100.00;98794.81;5058043;28;20032;-64
2022/10/29 07:53:57;;;;;;;;;;;;;;;13.11;100.00;98802.25;5056275;28;19967;-64
2022/10/29 07:56:23;;;;;;;;;;;;;;;13.18;100.00;98802.03;5057048;28;19947;-63
2022/10/29 07:58:49;;;;;;;;;;;;;;;13.13;100.00;98799.28;5055147;28;19956;-63
2022/10/29 08:01:17;;;;;;;;;;;;;;;13.14;100.00;98806.28;5055695;28;20265;-63
2022/10/29 08:03:43;;;;;;;;;;;;;;;13.18;100.00;98802.84;5058522;28;19981;-63
2022/10/29 08:06:10;;;;;;;;;;;;;;;13.26;100.00;98804.22;5058401;28;19925;-64
2022/10/29 08:08:36;;;;;;;;;;;;;;;13.32;100.00;98806.69;5055276;28;20551;-64
2022/10/29 08:11:03;;;;;;;;;;;;;;;13.39;100.00;98812.63;5054750;28;19935;-64
2022/10/29 08:13:29;;;;;;;;;;;;;;;13.40;100.00;98814.22;5057249;28;19953;-63
2022/10/29 08:15:56;;;;;;;;;;;;;;;13.47;100.00;98800.59;5058388;28;19978;-64
2022/10/29 08:18:24;;;;;;;;;;;;;;;13.55;100.00;98802.81;5057004;28;20020;-64
2022/10/29 08:20:50;;;;;;;;;;;;;;;13.52;100.00;98801.44;5055129;28;19992;-63
2022/10/29 08:23:16;;;;;;;;;;;;;;;13.63;100.00;98794.25;5052761;28;19925;-64
2022/10/29 08:25:43;;;;;;;;;;;;;;;13.71;100.00;98791.06;5058319;28;20020;-64
2022/10/29 08:28:10;;;;;;;;;;;;;;;13.70;100.00;98789.47;5057374;28;20373;-63
2022/10/29 08:30:37;;;;;;;;;;;;;;;13.68;100.00;98791.56;5047062;28;20168;-63
2022/10/29 08:33:04;;;;;;;;;;;;;;;13.74;100.00;98787.84;5055126;28;19951;-64
2022/10/29 08:35:32;;;;;;;;;;;;;;;13.85;100.00;98797.56;5057626;28;20004;-63
2022/10/29 08:37:59;;;;;;;;;;;;;;;13.86;100.00;98795.69;5058400;28;20011;-64
2022/10/29 08:40:30;;;;;;;;;;;;;;;13.83;100.00;98794.31;5056433;28;20020;-64
2022/10/29 08:43:17;;;;;;;;;;;;;;;13.86;100.00;98796.50;5055299;28;20016;-64
2022/10/29 08:45:45;;;;;;;;;;;;;;;13.83;100.00;98791.63;5048110;28;19969;-63
2022/10/29 08:48:20;;;;;;;;;;;;;;;13.84;100.00;98800.50;5053757;28;19966;-63
2022/10/29 08:50:49;;;;;;;;;;;;;;;13.68;100.00;98796.94;5058553;28;19992;-63
2022/10/29 08:53:17;;;;;;;;;;;;;;;13.60;100.00;98799.31;5048714;28;19992;-65
2022/10/29 08:55:44;;;;;;;;;;;;;;;13.59;100.00;98795.81;5058248;28;19925;-62
2022/10/29 08:58:13;;;;;;;;;;;;;;;13.62;100.00;98797.19;5058092;28;19931;-63
2022/10/29 09:00:41;;;;;;;;;;;;;;;13.70;100.00;98794.81;5047166;28;19929;-63
2022/10/29 09:03:10;;;;;;;;;;;;;;;13.74;100.00;98787.84;5054604;28;19925;-63
2022/10/29 09:05:45;;;;;;;;;;;;;;;13.77;100.00;98790.00;5058076;28;19936;-63
2022/10/29 09:08:22;;;;;;;;;;;;;;;13.77;100.00;98783.84;5057704;28;19925;-63
2022/10/29 09:10:52;;;;;;;;;;;;;;;13.78;100.00;98780.88;5047841;28;19928;-63
2022/10/29 09:13:28;;;;;;;;;;;;;;;13.82;100.00;98787.34;5055133;28;19922;-63
2022/10/29 09:16:00;;;;;;;;;;;;;;;13.81;100.00;98790.28;5058168;28;19964;-63
2022/10/29 09:18:31;;;;;;;;;;;;;;;13.88;100.00;98789.00;5055553;28;19921;-64
2022/10/29 09:21:01;;;;;;;;;;;;;;;13.98;100.00;98794.41;5054396;28;19996;-63
2022/10/29 09:23:34;;;;;;;;;;;;;;;14.06;100.00;98791.19;5056338;28;19986;-62
2022/10/29 09:26:02;;;;;;;;;;;;;;;14.05;100.00;98797.63;5061217;28;19975;-64
2022/10/29 09:28:34;;;;;;;;;;;;;;;13.99;100.00;98798.69;5058769;28;19925;-63
2022/10/29 09:31:05;;;;;;;;;;;;;;;14.03;100.00;98789.03;5057765;28;19935;-64
2022/10/29 09:33:32;;;;;;;;;;;;;;;14.11;100.00;98790.44;5060137;28;20003;-64
2022/10/29 09:35:59;;;;;;;;;;;;;;;14.12;100.00;98791.22;5060956;28;19964;-64
2022/10/29 09:38:29;;;;;;;;;;;;;;;14.14;100.00;98789.91;5058855;28;19992;-63
2022/10/29 09:40:58;;;;;;;;;;;;;;;14.20;100.00;98794.22;5056489;28;19950;-65
2022/10/29 09:43:33;;;;;;;;;;;;;;;14.20;100.00;98794.22;5059580;28;20024;-64
2022/10/29 09:46:01;;;;;;;;;;;;;;;14.28;100.00;98796.38;5060846;28;19925;-63
2022/10/29 09:48:33;;;;;;;;;;;;;;;14.28;100.00;98787.50;5058694;28;19921;-63
2022/10/29 09:51:06;;;;;;;;;;;;;;;14.28;100.00;98787.50;5057712;28;20055;-63
2022/10/29 09:53:32;;;;;;;;;;;;;;;14.43;100.00;98788.38;5057677;28;19957;-63
2022/10/29 09:56:00;;;;;;;;;;;;;;;14.48;100.00;98791.06;5060947;28;19925;-63
2022/10/29 09:58:27;;;;;;;;;;;;;;;14.48;100.00;98788.38;5058469;28;19925;-64
2022/10/29 10:00:55;;;;;;;;;;;;;;;14.56;100.00;98785.16;5057349;28;19925;-64
2022/10/29 10:03:23;;;;;;;;;;;;;;;14.48;100.00;98785.69;5058181;28;19942;-64
2022/10/29 10:05:56;;;;;;;;;;;;;;;14.54;100.00;98790.00;5060456;28;19984;-63
2022/10/29 10:08:23;;;;;;;;;;;;;;;14.51;100.00;98790.53;5058751;28;19980;-63
2022/10/29 10:10:53;;;;;;;;;;;;;;;14.48;100.00;98784.91;5056975;28;19983;-64
2022/10/29 10:13:22;;;;;;;;;;;;;;;14.51;100.00;98784.38;5057898;28;20034;-64
2022/10/29 10:15:50;;;;;;;;;;;;;;;14.59;100.00;98779.25;5060471;28;20010;-64
2022/10/29 10:18:18;;;;;;;;;;;;;;;14.61;100.00;98780.88;5059826;28;20280;-63
2022/10/29 10:20:45;;;;;;;;;;;;;;;14.64;100.00;98783.81;5057138;28;20001;-64
2022/10/29 10:23:20;;;;;;;;;;;;;;;14.57;100.00;98778.72;5054114;28;20023;-63
2022/10/29 10:25:46;;;;;;;;;;;;;;;14.70;100.00;98766.63;5050124;28;19925;-63
2022/10/29 10:28:17;;;;;;;;;;;;;;;14.83;100.00;98765.28;5056992;28;19960;-63
2022/10/29 10:30:45;;;;;;;;;;;;;;;14.91;100.00;98757.50;5060374;28;19925;-64
2022/10/29 10:33:21;;;;;;;;;;;;;;;14.89;100.00;98759.63;5060135;28;19984;-64
2022/10/29 10:35:48;;;;;;;;;;;;;;;14.93;100.00;98763.41;5049975;28;19925;-64
2022/10/29 10:38:15;;;;;;;;;;;;;;;14.97;100.00;98755.59;5056842;28;20166;-64
2022/10/29 10:40:42;;;;;;;;;;;;;;;15.08;100.00;98743.72;5060030;28;19984;-63
2022/10/29 10:43:17;;;;;;;;;;;;;;;15.13;100.00;98749.13;5060202;28;19981;-62
2022/10/29 10:45:51;;;;;;;;;;;;;;;15.19;100.00;98736.47;5049464;28;20183;-61
2022/10/29 10:48:18;;;;;;;;;;;;;;;15.25;100.00;98738.06;5057150;28;20343;-62
2022/10/29 10:50:44;;;;;;;;;;;;;;;15.38;100.00;98742.88;5059749;28;19984;-61
2022/10/29 10:53:16;;;;;;;;;;;;;;;15.41;100.00;98729.66;5050454;28;19925;-61
2022/10/29 10:55:47;;;;;;;;;;;;;;;15.45;100.00;98733.41;5049423;28;19929;-60
2022/10/29 10:58:17;;;;;;;;;;;;;;;15.55;100.00;98728.03;5056582;28;19949;-61
2022/10/29 11:00:47;;;;;;;;;;;;;;;16.04;100.00;98725.38;5059997;28;19928;-60
2022/10/29 11:03:15;;;;;;;;;;;;;;;16.18;100.00;98712.88;5059327;28;19929;-62
2022/10/29 11:05:45;;;;;;;;;;;;;;;16.02;100.00;98710.56;5056118;28;19935;-63
2022/10/29 11:08:16;;;;;;;;;;;;;;;16.02;100.00;98714.09;5056213;28;19931;-63
2022/10/29 11:10:45;;;;;;;;;;;;;;;15.89;100.00;98708.50;5048828;28;19925;-63
2022/10/29 11:13:13;;;;;;;;;;;;;;;15.89;100.00;98705.78;5055990;28;19976;-61
2022/10/29 11:15:45;;;;;;;;;;;;;;;15.83;100.00;98699.63;5048392;28;19956;-61
2022/10/29 11:18:16;;;;;;;;;;;;;;;15.82;100.00;98694.50;5056001;28;19925;-63
2022/10/29 11:20:45;;;;;;;;;;;;;;;15.85;100.00;98710.94;5048660;28;20023;-64
2022/10/29 11:23:22;;;;;;;;;;;;;;;16.03;100.00;98707.59;5053299;28;19931;-63
2022/10/29 11:25:50;;;;;;;;;;;;;;;16.17;100.00;98697.81;5049311;28;19966;-62
2022/10/29 11:28:21;;;;;;;;;;;;;;;16.11;100.00;98698.94;5056418;28;20000;-63
2022/10/29 11:30:51;;;;;;;;;;;;;;;16.24;100.00;98700.19;5058582;28;21459;-61
2022/10/29 11:33:24;;;;;;;;;;;;;;;16.42;100.00;98696.03;5058147;28;19992;-61
2022/10/29 11:35:53;;;;;;;;;;;;;;;16.51;100.00;98694.31;5055574;28;19929;-63
2022/10/29 11:38:21;;;;;;;;;;;;;;;16.47;100.00;98686.00;5056632;28;19996;-60
2022/10/29 11:40:50;;;;;;;;;;;;;;;16.50;100.00;98688.13;5058968;28;19925;-61
2022/10/29 11:43:18;;;;;;;;;;;;;;;16.52;100.00;98682.47;5058392;28;19993;-62
2022/10/29 11:45:51;;;;;;;;;;;;;;;16.55;100.00;98682.75;5055042;28;20020;-61
2022/10/29 11:48:25;;;;;;;;;;;;;;;16.54;100.00;98682.97;5056120;28;19936;-61
2022/10/29 11:50:55;;;;;;;;;;;;;;;16.62;100.00;98674.28;5058904;28;19984;-62
2022/10/29 11:53:29;;;;;;;;;;;;;;;16.57;100.00;98667.06;5048898;28;19960;-61
2022/10/29 11:55:58;;;;;;;;;;;;;;;16.81;100.00;98667.09;5056861;28;19989;-63
2022/10/29 11:58:29;;;;;;;;;;;;;;;16.71;100.00;98670.72;5056955;28;19989;-62
2022/10/29 12:01:00;;;;;;;;;;;;;;;16.72;100.00;98658.84;5058742;28;19950;-63
2022/10/29 12:03:34;;;;;;;;;;;;;;;16.90;100.00;98653.78;5054761;28;20001;-62
2022/10/29 12:06:05;;;;;;;;;;;;;;;17.00;100.00;98656.41;5037450;28;19977;-61
2022/10/29 12:08:41;;;;;;;;;;;;;;;17.11;100.00;98656.00;5053507;28;19929;-61
2022/10/29 12:11:10;;;;;;;;;;;;;;;17.15;100.00;98640.84;5052648;28;19928;-64
2022/10/29 12:13:44;;;;;;;;;;;;;;;17.10;100.00;98648.19;5050239;28;19925;-63
2022/10/29 12:16:14;;;;;;;;;;;;;;;17.14;100.00;98649.25;5041562;28;19932;-62
2022/10/29 12:18:45;;;;;;;;;;;;;;;17.17;100.00;98638.69;5045674;28;19921;-63
2022/10/29 12:21:17;;;;;;;;;;;;;;;17.28;100.00;98642.84;5044006;28;20601;-64
2022/10/29 12:23:51;;;;;;;;;;;;;;;17.30;100.00;98642.56;5038808;28;19980;-64
2022/10/29 12:26:20;;;;;;;;;;;;;;;17.29;100.00;98643.66;5055954;28;19936;-61
2022/10/29 12:28:49;;;;;;;;;;;;;;;17.37;100.00;98636.81;5050607;28;19925;-62
2022/10/29 12:31:21;;;;;;;;;;;;;;;17.45;100.00;98637.00;5040471;28;19926;-62
2022/10/29 12:33:51;;;;;;;;;;;;;;;17.57;100.00;98644.69;5049748;28;19984;-61
2022/10/29 12:36:21;;;;;;;;;;;;;;;17.57;100.00;98632.00;5044756;28;19967;-61
2022/10/29 12:38:50;;;;;;;;;;;;;;;17.66;100.00;98637.53;5050549;28;19994;-63
2022/10/29 12:41:19;;;;;;;;;;;;;;;17.69;100.00;98626.97;5047340;28;19925;-61